MV Archie C. Settoon — WCZ6028 — position and weather

sailwx.info

Track history (hours):
 
Tides and Currents Weather Stations Pressure Air Temp Water Temp Dewpoint Dewpoint Depression Visibility Wind Speed Wind Dir Waves Ship Positions

MV Archie C. Settoon

Owner: F A S SERVICES INC, PIERRE PART, LA. More information available from US FCC via Universal Licensing System and Coast Guard Vessel Documentation Center.

Last reported at 2018-May-25 18:18 UTC. Time now 2018-May-28 03:19 UTC.
Position N 29°04' W 095°13'.

Length 12 m.

Type: Pleasure craft. MMSI: 338165609.

Date/timePositionNaut miles runAvg speedWind from/ knotsBaromVisibWave heightAir tempDewpointWater temp
2018-May-25 18:18N 29°04' W 095°13'2 6.8
2018-May-25 17:57N 29°06' W 095°12'3 6.7
2018-May-25 17:30N 29°08' W 095°10'4 6.9
2018-May-25 16:59N 29°10' W 095°07'3 6.8
2018-May-25 16:30N 29°12' W 095°03'3 6.7
2018-May-25 16:00N 29°14' W 095°01'18 4.3
2018-May-25 11:45N 29°32' W 094°58'2 6.4
2018-May-25 11:29N 29°33' W 095°00'2 0.3
2018-May-25 07:02N 29°33' W 095°02'0 0.0
2018-May-25 04:26N 29°33' W 095°02'0 0.0
2018-May-25 03:35N 29°33' W 095°02'0 0.0
2018-May-25 03:23N 29°33' W 095°02'0 0.0
2018-May-25 02:20N 29°33' W 095°02'0 0.0
2018-May-25 01:56N 29°33' W 095°02'0 0.0
2018-May-25 01:29N 29°33' W 095°02'0 0.0
2018-May-25 00:59N 29°33' W 095°02'0 0.0
2018-May-25 00:29N 29°33' W 095°02'0 0.0
2018-May-24 23:59N 29°33' W 095°02'0 0.0
2018-May-24 23:26N 29°33' W 095°02'0 0.0
2018-May-24 22:56N 29°33' W 095°02'0 0.0
2018-May-24 22:29N 29°33' W 095°02'0 0.0
2018-May-24 21:56N 29°33' W 095°02'0 0.0
2018-May-24 21:29N 29°33' W 095°02'0 0.0
2018-May-24 20:59N 29°33' W 095°02'0 0.0
2018-May-24 20:26N 29°33' W 095°02'0 0.0
2018-May-24 19:56N 29°33' W 095°02'0 0.0
2018-May-24 19:29N 29°33' W 095°02'0 0.0
2018-May-24 18:56N 29°33' W 095°02'0 0.0
2018-May-24 18:29N 29°33' W 095°02'  
2018-May-20 21:57N 29°33' W 095°02'0 0.0
2018-May-20 21:28N 29°33' W 095°02'0 0.0
2018-May-20 20:58N 29°33' W 095°02'0 0.0
2018-May-20 20:10N 29°33' W 095°02'0 0.0
2018-May-20 19:58N 29°33' W 095°02'0 0.0
2018-May-20 19:19N 29°33' W 095°02'0 0.0
2018-May-20 18:58N 29°33' W 095°02'0 0.0
2018-May-20 18:25N 29°33' W 095°02'0 0.0
2018-May-20 17:58N 29°33' W 095°02'0 0.0
2018-May-20 17:25N 29°33' W 095°02'0 0.0
2018-May-20 16:49N 29°33' W 095°02'0 0.0
2018-May-20 16:28N 29°33' W 095°02'0 0.0
2018-May-20 15:58N 29°33' W 095°02'0 0.0
2018-May-20 15:28N 29°33' W 095°02'0 0.0
2018-May-20 14:52N 29°33' W 095°02'0 0.0
2018-May-20 14:28N 29°33' W 095°02'0 0.0
2018-May-20 13:58N 29°33' W 095°02'0 0.0
2018-May-20 13:25N 29°33' W 095°02'0 0.0
2018-May-20 12:55N 29°33' W 095°02'0 0.0
2018-May-20 12:22N 29°33' W 095°02'0 0.0
2018-May-20 11:58N 29°33' W 095°02'0 0.0
2018-May-20 11:28N 29°33' W 095°02'0 0.0
2018-May-20 10:52N 29°33' W 095°02'0 0.0
2018-May-20 10:28N 29°33' W 095°02'0 0.0
2018-May-20 09:37N 29°33' W 095°02'0 0.0
2018-May-20 09:28N 29°33' W 095°02'0 0.0
2018-May-20 08:58N 29°33' W 095°02'0 0.0
2018-May-20 08:28N 29°33' W 095°02'0 0.0
2018-May-20 07:58N 29°33' W 095°02'0 0.0
2018-May-20 07:28N 29°33' W 095°02'0 0.0
2018-May-20 06:58N 29°33' W 095°02'0 0.0
2018-May-20 06:28N 29°33' W 095°02'0 0.0
2018-May-20 05:58N 29°33' W 095°02'0 0.0
2018-May-20 05:25N 29°33' W 095°02'0 0.0
2018-May-20 04:55N 29°33' W 095°02'0 0.0
2018-May-20 04:25N 29°33' W 095°02'0 0.0
2018-May-20 03:58N 29°33' W 095°02'0 0.0
2018-May-20 03:28N 29°33' W 095°02'0 0.0
2018-May-20 02:58N 29°33' W 095°02'0 0.0
2018-May-20 02:28N 29°33' W 095°02'0 0.0
2018-May-20 01:58N 29°33' W 095°02'0 0.0
2018-May-20 01:28N 29°33' W 095°02'0 0.0
2018-May-20 00:52N 29°33' W 095°02'0 0.0
2018-May-20 00:28N 29°33' W 095°02'0 0.0
2018-May-19 23:58N 29°33' W 095°02'0 0.0
2018-May-19 23:19N 29°33' W 095°02'0 0.0
2018-May-19 22:58N 29°33' W 095°02'0 0.0
2018-May-19 22:28N 29°33' W 095°02'0 0.0
2018-May-19 21:58N 29°33' W 095°02'0 0.0
2018-May-19 21:28N 29°33' W 095°02'0 0.0
2018-May-19 20:58N 29°33' W 095°02'0 0.0
2018-May-19 20:28N 29°33' W 095°02'0 0.0
2018-May-19 19:58N 29°33' W 095°02'0 0.0
2018-May-19 19:25N 29°33' W 095°02'0 0.0
2018-May-19 18:58N 29°33' W 095°02'0 0.0
2018-May-19 18:28N 29°33' W 095°02'0 0.0
2018-May-19 17:58N 29°33' W 095°02'0 0.0
2018-May-19 17:25N 29°33' W 095°02'0 0.0
2018-May-19 16:55N 29°33' W 095°02'0 0.0
2018-May-19 16:28N 29°33' W 095°02'0 0.0
2018-May-19 15:55N 29°33' W 095°02'0 0.0
2018-May-19 15:28N 29°33' W 095°02'0 0.0
2018-May-19 14:58N 29°33' W 095°02'0 0.0
2018-May-19 14:28N 29°33' W 095°02'0 0.0
2018-May-19 13:55N 29°33' W 095°02'0 0.0
2018-May-19 13:25N 29°33' W 095°02'0 0.0
2018-May-19 12:58N 29°33' W 095°02'0 0.0
2018-May-19 12:25N 29°33' W 095°02'0 0.0
2018-May-19 11:58N 29°33' W 095°02'0 0.0
2018-May-19 11:25N 29°33' W 095°02'0 0.0
2018-May-19 10:58N 29°33' W 095°02'0 0.0
2018-May-19 10:28N 29°33' W 095°02'0 0.0
2018-May-19 09:58N 29°33' W 095°02'0 0.0
2018-May-19 08:34N 29°33' W 095°02'0 0.0
2018-May-19 08:28N 29°33' W 095°02'0 0.0
2018-May-19 07:46N 29°33' W 095°02'0 0.0
2018-May-19 07:22N 29°33' W 095°02'0 0.0
2018-May-19 06:58N 29°33' W 095°02'0 0.0
2018-May-19 06:28N 29°33' W 095°02'0 0.0
2018-May-19 05:58N 29°33' W 095°02'0 0.0
2018-May-19 05:25N 29°33' W 095°02'0 0.0
2018-May-19 04:55N 29°33' W 095°02'0 0.0
2018-May-19 04:28N 29°33' W 095°02'0 0.0
2018-May-19 03:58N 29°33' W 095°02'0 0.0
2018-May-19 03:25N 29°33' W 095°02'0 0.0
2018-May-19 02:43N 29°33' W 095°02'0 0.0
2018-May-19 02:28N 29°33' W 095°02'0 0.0
2018-May-19 01:58N 29°33' W 095°02'0 0.0
2018-May-19 01:22N 29°33' W 095°02'0 0.0
2018-May-19 00:58N 29°33' W 095°02'0 0.0
2018-May-19 00:19N 29°33' W 095°02'0 0.0
2018-May-18 23:55N 29°33' W 095°02'0 0.0
2018-May-18 23:28N 29°33' W 095°02'0 0.0
2018-May-18 22:58N 29°33' W 095°02'0 0.0
2018-May-18 22:16N 29°33' W 095°02'0 0.0
2018-May-18 21:43N 29°33' W 095°02'0 0.0
2018-May-18 21:28N 29°33' W 095°02'0 0.0
2018-May-18 20:58N 29°33' W 095°02'0 0.0
2018-May-18 20:25N 29°33' W 095°02'0 0.0
2018-May-18 19:46N 29°33' W 095°02'0 0.0
2018-May-18 19:22N 29°33' W 095°02'0 0.0
2018-May-18 18:58N 29°33' W 095°02'0 0.0
2018-May-18 18:28N 29°33' W 095°02'0 0.0
2018-May-18 17:52N 29°33' W 095°02'0 0.0
2018-May-18 17:28N 29°33' W 095°02'0 0.0
2018-May-18 16:58N 29°33' W 095°02'0 0.0
2018-May-18 16:28N 29°33' W 095°02'0 0.0
2018-May-18 15:58N 29°33' W 095°02'0 0.0
2018-May-18 15:22N 29°33' W 095°02'0 0.0
2018-May-18 14:55N 29°33' W 095°02'0 0.0
2018-May-18 14:28N 29°33' W 095°02'0 0.0
2018-May-18 13:58N 29°33' W 095°02'0 0.0
2018-May-18 13:22N 29°33' W 095°02'0 0.0
2018-May-18 12:49N 29°33' W 095°02'0 0.0
2018-May-18 12:28N 29°33' W 095°02'0 0.0
2018-May-18 11:58N 29°33' W 095°02'0 0.0
2018-May-18 11:28N 29°33' W 095°02'0 0.0
2018-May-18 10:58N 29°33' W 095°02'0 0.0
2018-May-18 10:28N 29°33' W 095°02'0 0.0
2018-May-18 09:55N 29°33' W 095°02'0 0.0
2018-May-18 09:22N 29°33' W 095°02'0 0.0
2018-May-18 08:58N 29°33' W 095°02'0 0.0
2018-May-18 08:28N 29°33' W 095°02'0 0.0
2018-May-18 07:55N 29°33' W 095°02'0 0.0
2018-May-18 07:28N 29°33' W 095°02'0 0.0
2018-May-18 06:58N 29°33' W 095°02'0 0.0
2018-May-18 06:28N 29°33' W 095°02'0 0.0
2018-May-18 05:46N 29°33' W 095°02'0 0.0
2018-May-18 05:28N 29°33' W 095°02'0 0.0
2018-May-18 04:55N 29°33' W 095°02'0 0.0
2018-May-18 04:28N 29°33' W 095°02'0 0.0
2018-May-18 03:55N 29°33' W 095°02'0 0.0
2018-May-18 03:28N 29°33' W 095°02'0 0.0
2018-May-18 02:58N 29°33' W 095°02'0 0.0
2018-May-18 02:28N 29°33' W 095°02'0 0.0
2018-May-18 01:58N 29°33' W 095°02'0 0.0
2018-May-18 01:04N 29°33' W 095°02'0 0.0
2018-May-18 00:58N 29°33' W 095°02'0 0.0
2018-May-18 00:16N 29°33' W 095°02'0 0.0
2018-May-17 23:58N 29°33' W 095°02'0 0.0
2018-May-17 23:28N 29°33' W 095°02'0 0.0
2018-May-17 22:58N 29°33' W 095°02'0 0.0
2018-May-17 21:58N 29°33' W 095°02'0 0.0
2018-May-17 21:28N 29°33' W 095°02'0 0.0
2018-May-17 20:58N 29°33' W 095°02'0 0.0
2018-May-17 20:28N 29°33' W 095°02'0 0.0
2018-May-17 19:49N 29°33' W 095°02'0 0.0
2018-May-17 15:16N 29°33' W 095°02'0 0.0
2018-May-17 14:49N 29°33' W 095°02'0 0.0
2018-May-17 14:28N 29°33' W 095°02'0 0.0
2018-May-17 13:58N 29°33' W 095°02'0 0.0
2018-May-17 13:28N 29°33' W 095°02'0 0.0
2018-May-17 12:58N 29°33' W 095°02'0 0.0
2018-May-17 12:28N 29°33' W 095°02'0 0.0
2018-May-17 11:58N 29°33' W 095°02'0 0.0
2018-May-17 11:28N 29°33' W 095°02'0 0.0
2018-May-17 10:58N 29°33' W 095°02'0 0.0
2018-May-17 10:28N 29°33' W 095°02'0 0.0
2018-May-17 09:52N 29°33' W 095°02'0 0.0
2018-May-17 09:22N 29°33' W 095°02'0 0.0
2018-May-17 08:58N 29°33' W 095°02'0 0.0
2018-May-17 08:16N 29°33' W 095°02'0 0.0
2018-May-17 07:58N 29°33' W 095°02'0 0.0
2018-May-17 07:22N 29°33' W 095°02'0 0.0
2018-May-17 06:22N 29°33' W 095°02'0 0.0
2018-May-17 05:55N 29°33' W 095°02'0 0.0
2018-May-17 04:52N 29°33' W 095°02'0 0.0
2018-May-17 04:25N 29°33' W 095°02'0 0.0
2018-May-17 03:58N 29°33' W 095°02'0 0.0
2018-May-17 03:10N 29°33' W 095°02'0 0.0
2018-May-17 02:52N 29°33' W 095°02'0 0.0
2018-May-17 02:22N 29°33' W 095°02'0 0.0
2018-May-17 01:58N 29°33' W 095°02'0 0.0
2018-May-17 01:28N 29°33' W 095°02'0 0.0
2018-May-17 00:58N 29°33' W 095°02'0 0.0
2018-May-17 00:25N 29°33' W 095°02'0 0.0
2018-May-16 23:58N 29°33' W 095°02'0 0.0
2018-May-16 23:28N 29°33' W 095°02'0 0.0
2018-May-16 22:58N 29°33' W 095°02'0 0.0
2018-May-16 22:04N 29°33' W 095°02'0 0.0
2018-May-16 21:55N 29°33' W 095°02'0 0.0
2018-May-16 21:28N 29°33' W 095°02'0 0.0
2018-May-16 20:49N 29°33' W 095°02'0 0.0
2018-May-16 20:13N 29°33' W 095°02'0 0.0
2018-May-16 19:37N 29°33' W 095°02'0 0.0
2018-May-16 19:19N 29°33' W 095°02'0 0.0
2018-May-16 18:52N 29°33' W 095°02'0 0.0
2018-May-16 18:25N 29°33' W 095°02'0 0.0
2018-May-16 17:43N 29°33' W 095°02'0 0.0
2018-May-16 17:22N 29°33' W 095°02'0 0.0
2018-May-16 16:19N 29°33' W 095°02'0 0.0
2018-May-16 13:43N 29°33' W 095°02'0 0.0
2018-May-16 13:25N 29°33' W 095°02'0 0.0
2018-May-16 12:46N 29°33' W 095°02'0 0.0
2018-May-16 11:07N 29°33' W 095°02'0 0.0
2018-May-16 10:37N 29°33' W 095°02'0 0.0
2018-May-16 10:19N 29°33' W 095°02'0 0.0
2018-May-16 09:49N 29°33' W 095°02'0 0.0
2018-May-16 09:28N 29°33' W 095°02'0 0.0
2018-May-16 08:58N 29°33' W 095°02'0 0.0
2018-May-16 08:22N 29°33' W 095°02'0 0.0
2018-May-16 07:40N 29°33' W 095°02'0 0.0
2018-May-16 07:28N 29°33' W 095°02'0 0.0
2018-May-16 06:49N 29°33' W 095°02'0 0.0
2018-May-16 06:28N 29°33' W 095°02'0 0.0
2018-May-16 05:58N 29°33' W 095°02'0 0.0
2018-May-16 03:46N 29°33' W 095°02'0 0.0
2018-May-16 03:25N 29°33' W 095°02'0 0.0
2018-May-16 01:10N 29°33' W 095°02'0 0.0
2018-May-16 00:58N 29°33' W 095°02'0 0.0
2018-May-16 00:19N 29°33' W 095°02'0 0.0
2018-May-15 23:58N 29°33' W 095°02'0 0.0
2018-May-15 23:19N 29°33' W 095°02'0 0.0
2018-May-15 22:58N 29°33' W 095°02'0 0.0
2018-May-15 22:22N 29°33' W 095°02'0 0.0
2018-May-15 21:58N 29°33' W 095°02'0 0.0
2018-May-15 21:28N 29°33' W 095°02'0 0.0
2018-May-15 19:46N 29°33' W 095°02'0 0.0
2018-May-15 19:28N 29°33' W 095°02'0 0.0
2018-May-15 18:49N 29°33' W 095°02'0 0.0
2018-May-15 18:25N 29°33' W 095°02'  
Track history (hours):
 
Tides and Currents Weather Stations Pressure Air Temp Water Temp Dewpoint Dewpoint Depression Visibility Wind Speed Wind Dir Waves Ship Positions

MV Archie C. Settoon

Owner: F A S SERVICES INC, PIERRE PART, LA. More information available from US FCC via Universal Licensing System and Coast Guard Vessel Documentation Center.

Last reported at 2018-May-25 18:18 UTC. Time now 2018-May-28 03:19 UTC.
Position N 29°04' W 095°13'.

Length 12 m.

Type: Pleasure craft. MMSI: 338165609.

Date/timePositionNaut miles runAvg speedWind from/ knotsBaromVisibWave heightAir tempDewpointWater temp
2018-May-25 18:18N 29°04' W 095°13'2 6.8
2018-May-25 17:57N 29°06' W 095°12'3 6.7
2018-May-25 17:30N 29°08' W 095°10'4 6.9
2018-May-25 16:59N 29°10' W 095°07'3 6.8
2018-May-25 16:30N 29°12' W 095°03'3 6.7
2018-May-25 16:00N 29°14' W 095°01'18 4.3
2018-May-25 11:45N 29°32' W 094°58'2 6.4
2018-May-25 11:29N 29°33' W 095°00'2 0.3
2018-May-25 07:02N 29°33' W 095°02'0 0.0
2018-May-25 04:26N 29°33' W 095°02'0 0.0
2018-May-25 03:35N 29°33' W 095°02'0 0.0
2018-May-25 03:23N 29°33' W 095°02'0 0.0
2018-May-25 02:20N 29°33' W 095°02'0 0.0
2018-May-25 01:56N 29°33' W 095°02'0 0.0
2018-May-25 01:29N 29°33' W 095°02'0 0.0
2018-May-25 00:59N 29°33' W 095°02'0 0.0
2018-May-25 00:29N 29°33' W 095°02'0 0.0
2018-May-24 23:59N 29°33' W 095°02'0 0.0
2018-May-24 23:26N 29°33' W 095°02'0 0.0
2018-May-24 22:56N 29°33' W 095°02'0 0.0
2018-May-24 22:29N 29°33' W 095°02'0 0.0
2018-May-24 21:56N 29°33' W 095°02'0 0.0
2018-May-24 21:29N 29°33' W 095°02'0 0.0
2018-May-24 20:59N 29°33' W 095°02'0 0.0
2018-May-24 20:26N 29°33' W 095°02'0 0.0
2018-May-24 19:56N 29°33' W 095°02'0 0.0
2018-May-24 19:29N 29°33' W 095°02'0 0.0
2018-May-24 18:56N 29°33' W 095°02'0 0.0
2018-May-24 18:29N 29°33' W 095°02'  
2018-May-20 21:57N 29°33' W 095°02'0 0.0
2018-May-20 21:28N 29°33' W 095°02'0 0.0
2018-May-20 20:58N 29°33' W 095°02'0 0.0
2018-May-20 20:10N 29°33' W 095°02'0 0.0
2018-May-20 19:58N 29°33' W 095°02'0 0.0
2018-May-20 19:19N 29°33' W 095°02'0 0.0
2018-May-20 18:58N 29°33' W 095°02'0 0.0
2018-May-20 18:25N 29°33' W 095°02'0 0.0
2018-May-20 17:58N 29°33' W 095°02'0 0.0
2018-May-20 17:25N 29°33' W 095°02'0 0.0
2018-May-20 16:49N 29°33' W 095°02'0 0.0
2018-May-20 16:28N 29°33' W 095°02'0 0.0
2018-May-20 15:58N 29°33' W 095°02'0 0.0
2018-May-20 15:28N 29°33' W 095°02'0 0.0
2018-May-20 14:52N 29°33' W 095°02'0 0.0
2018-May-20 14:28N 29°33' W 095°02'0 0.0
2018-May-20 13:58N 29°33' W 095°02'0 0.0
2018-May-20 13:25N 29°33' W 095°02'0 0.0
2018-May-20 12:55N 29°33' W 095°02'0 0.0
2018-May-20 12:22N 29°33' W 095°02'0 0.0
2018-May-20 11:58N 29°33' W 095°02'0 0.0
2018-May-20 11:28N 29°33' W 095°02'0 0.0
2018-May-20 10:52N 29°33' W 095°02'0 0.0
2018-May-20 10:28N 29°33' W 095°02'0 0.0
2018-May-20 09:37N 29°33' W 095°02'0 0.0
2018-May-20 09:28N 29°33' W 095°02'0 0.0
2018-May-20 08:58N 29°33' W 095°02'0 0.0
2018-May-20 08:28N 29°33' W 095°02'0 0.0
2018-May-20 07:58N 29°33' W 095°02'0 0.0
2018-May-20 07:28N 29°33' W 095°02'0 0.0
2018-May-20 06:58N 29°33' W 095°02'0 0.0
2018-May-20 06:28N 29°33' W 095°02'0 0.0
2018-May-20 05:58N 29°33' W 095°02'0 0.0
2018-May-20 05:25N 29°33' W 095°02'0 0.0
2018-May-20 04:55N 29°33' W 095°02'0 0.0
2018-May-20 04:25N 29°33' W 095°02'0 0.0
2018-May-20 03:58N 29°33' W 095°02'0 0.0
2018-May-20 03:28N 29°33' W 095°02'0 0.0
2018-May-20 02:58N 29°33' W 095°02'0 0.0
2018-May-20 02:28N 29°33' W 095°02'0 0.0
2018-May-20 01:58N 29°33' W 095°02'0 0.0
2018-May-20 01:28N 29°33' W 095°02'0 0.0
2018-May-20 00:52N 29°33' W 095°02'0 0.0
2018-May-20 00:28N 29°33' W 095°02'0 0.0
2018-May-19 23:58N 29°33' W 095°02'0 0.0
2018-May-19 23:19N 29°33' W 095°02'0 0.0
2018-May-19 22:58N 29°33' W 095°02'0 0.0
2018-May-19 22:28N 29°33' W 095°02'0 0.0
2018-May-19 21:58N 29°33' W 095°02'0 0.0
2018-May-19 21:28N 29°33' W 095°02'0 0.0
2018-May-19 20:58N 29°33' W 095°02'0 0.0
2018-May-19 20:28N 29°33' W 095°02'0 0.0
2018-May-19 19:58N 29°33' W 095°02'0 0.0
2018-May-19 19:25N 29°33' W 095°02'0 0.0
2018-May-19 18:58N 29°33' W 095°02'0 0.0
2018-May-19 18:28N 29°33' W 095°02'0 0.0
2018-May-19 17:58N 29°33' W 095°02'0 0.0
2018-May-19 17:25N 29°33' W 095°02'0 0.0
2018-May-19 16:55N 29°33' W 095°02'0 0.0
2018-May-19 16:28N 29°33' W 095°02'0 0.0
2018-May-19 15:55N 29°33' W 095°02'0 0.0
2018-May-19 15:28N 29°33' W 095°02'0 0.0
2018-May-19 14:58N 29°33' W 095°02'0 0.0
2018-May-19 14:28N 29°33' W 095°02'0 0.0
2018-May-19 13:55N 29°33' W 095°02'0 0.0
2018-May-19 13:25N 29°33' W 095°02'0 0.0
2018-May-19 12:58N 29°33' W 095°02'0 0.0
2018-May-19 12:25N 29°33' W 095°02'0 0.0
2018-May-19 11:58N 29°33' W 095°02'0 0.0
2018-May-19 11:25N 29°33' W 095°02'0 0.0
2018-May-19 10:58N 29°33' W 095°02'0 0.0
2018-May-19 10:28N 29°33' W 095°02'0 0.0
2018-May-19 09:58N 29°33' W 095°02'0 0.0
2018-May-19 08:34N 29°33' W 095°02'0 0.0
2018-May-19 08:28N 29°33' W 095°02'0 0.0
2018-May-19 07:46N 29°33' W 095°02'0 0.0
2018-May-19 07:22N 29°33' W 095°02'0 0.0
2018-May-19 06:58N 29°33' W 095°02'0 0.0
2018-May-19 06:28N 29°33' W 095°02'0 0.0
2018-May-19 05:58N 29°33' W 095°02'0 0.0
2018-May-19 05:25N 29°33' W 095°02'0 0.0
2018-May-19 04:55N 29°33' W 095°02'0 0.0
2018-May-19 04:28N 29°33' W 095°02'0 0.0
2018-May-19 03:58N 29°33' W 095°02'0 0.0
2018-May-19 03:25N 29°33' W 095°02'0 0.0
2018-May-19 02:43N 29°33' W 095°02'0 0.0
2018-May-19 02:28N 29°33' W 095°02'0 0.0
2018-May-19 01:58N 29°33' W 095°02'0 0.0
2018-May-19 01:22N 29°33' W 095°02'0 0.0
2018-May-19 00:58N 29°33' W 095°02'0 0.0
2018-May-19 00:19N 29°33' W 095°02'0 0.0
2018-May-18 23:55N 29°33' W 095°02'0 0.0
2018-May-18 23:28N 29°33' W 095°02'0 0.0
2018-May-18 22:58N 29°33' W 095°02'0 0.0
2018-May-18 22:16N 29°33' W 095°02'0 0.0
2018-May-18 21:43N 29°33' W 095°02'0 0.0
2018-May-18 21:28N 29°33' W 095°02'0 0.0
2018-May-18 20:58N 29°33' W 095°02'0 0.0
2018-May-18 20:25N 29°33' W 095°02'0 0.0
2018-May-18 19:46N 29°33' W 095°02'0 0.0
2018-May-18 19:22N 29°33' W 095°02'0 0.0
2018-May-18 18:58N 29°33' W 095°02'0 0.0
2018-May-18 18:28N 29°33' W 095°02'0 0.0
2018-May-18 17:52N 29°33' W 095°02'0 0.0
2018-May-18 17:28N 29°33' W 095°02'0 0.0
2018-May-18 16:58N 29°33' W 095°02'0 0.0
2018-May-18 16:28N 29°33' W 095°02'0 0.0
2018-May-18 15:58N 29°33' W 095°02'0 0.0
2018-May-18 15:22N 29°33' W 095°02'0 0.0
2018-May-18 14:55N 29°33' W 095°02'0 0.0
2018-May-18 14:28N 29°33' W 095°02'0 0.0
2018-May-18 13:58N 29°33' W 095°02'0 0.0
2018-May-18 13:22N 29°33' W 095°02'0 0.0
2018-May-18 12:49N 29°33' W 095°02'0 0.0
2018-May-18 12:28N 29°33' W 095°02'0 0.0
2018-May-18 11:58N 29°33' W 095°02'0 0.0
2018-May-18 11:28N 29°33' W 095°02'0 0.0
2018-May-18 10:58N 29°33' W 095°02'0 0.0
2018-May-18 10:28N 29°33' W 095°02'0 0.0
2018-May-18 09:55N 29°33' W 095°02'0 0.0
2018-May-18 09:22N 29°33' W 095°02'0 0.0
2018-May-18 08:58N 29°33' W 095°02'0 0.0
2018-May-18 08:28N 29°33' W 095°02'0 0.0
2018-May-18 07:55N 29°33' W 095°02'0 0.0
2018-May-18 07:28N 29°33' W 095°02'0 0.0
2018-May-18 06:58N 29°33' W 095°02'0 0.0
2018-May-18 06:28N 29°33' W 095°02'0 0.0
2018-May-18 05:46N 29°33' W 095°02'0 0.0
2018-May-18 05:28N 29°33' W 095°02'0 0.0
2018-May-18 04:55N 29°33' W 095°02'0 0.0
2018-May-18 04:28N 29°33' W 095°02'0 0.0
2018-May-18 03:55N 29°33' W 095°02'0 0.0
2018-May-18 03:28N 29°33' W 095°02'0 0.0
2018-May-18 02:58N 29°33' W 095°02'0 0.0
2018-May-18 02:28N 29°33' W 095°02'0 0.0
2018-May-18 01:58N 29°33' W 095°02'0 0.0
2018-May-18 01:04N 29°33' W 095°02'0 0.0
2018-May-18 00:58N 29°33' W 095°02'0 0.0
2018-May-18 00:16N 29°33' W 095°02'0 0.0
2018-May-17 23:58N 29°33' W 095°02'0 0.0
2018-May-17 23:28N 29°33' W 095°02'0 0.0
2018-May-17 22:58N 29°33' W 095°02'0 0.0
2018-May-17 21:58N 29°33' W 095°02'0 0.0
2018-May-17 21:28N 29°33' W 095°02'0 0.0
2018-May-17 20:58N 29°33' W 095°02'0 0.0
2018-May-17 20:28N 29°33' W 095°02'0 0.0
2018-May-17 19:49N 29°33' W 095°02'0 0.0
2018-May-17 15:16N 29°33' W 095°02'0 0.0
2018-May-17 14:49N 29°33' W 095°02'0 0.0
2018-May-17 14:28N 29°33' W 095°02'0 0.0
2018-May-17 13:58N 29°33' W 095°02'0 0.0
2018-May-17 13:28N 29°33' W 095°02'0 0.0
2018-May-17 12:58N 29°33' W 095°02'0 0.0
2018-May-17 12:28N 29°33' W 095°02'0 0.0
2018-May-17 11:58N 29°33' W 095°02'0 0.0
2018-May-17 11:28N 29°33' W 095°02'0 0.0
2018-May-17 10:58N 29°33' W 095°02'0 0.0
2018-May-17 10:28N 29°33' W 095°02'0 0.0
2018-May-17 09:52N 29°33' W 095°02'0 0.0
2018-May-17 09:22N 29°33' W 095°02'0 0.0
2018-May-17 08:58N 29°33' W 095°02'0 0.0
2018-May-17 08:16N 29°33' W 095°02'0 0.0
2018-May-17 07:58N 29°33' W 095°02'0 0.0
2018-May-17 07:22N 29°33' W 095°02'0 0.0
2018-May-17 06:22N 29°33' W 095°02'0 0.0
2018-May-17 05:55N 29°33' W 095°02'0 0.0
2018-May-17 04:52N 29°33' W 095°02'0 0.0
2018-May-17 04:25N 29°33' W 095°02'0 0.0
2018-May-17 03:58N 29°33' W 095°02'0 0.0
2018-May-17 03:10N 29°33' W 095°02'0 0.0
2018-May-17 02:52N 29°33' W 095°02'0 0.0
2018-May-17 02:22N 29°33' W 095°02'0 0.0
2018-May-17 01:58N 29°33' W 095°02'0 0.0
2018-May-17 01:28N 29°33' W 095°02'0 0.0
2018-May-17 00:58N 29°33' W 095°02'0 0.0
2018-May-17 00:25N 29°33' W 095°02'0 0.0
2018-May-16 23:58N 29°33' W 095°02'0 0.0
2018-May-16 23:28N 29°33' W 095°02'0 0.0
2018-May-16 22:58N 29°33' W 095°02'0 0.0
2018-May-16 22:04N 29°33' W 095°02'0 0.0
2018-May-16 21:55N 29°33' W 095°02'0 0.0
2018-May-16 21:28N 29°33' W 095°02'0 0.0
2018-May-16 20:49N 29°33' W 095°02'0 0.0
2018-May-16 20:13N 29°33' W 095°02'0 0.0
2018-May-16 19:37N 29°33' W 095°02'0 0.0
2018-May-16 19:19N 29°33' W 095°02'0 0.0
2018-May-16 18:52N 29°33' W 095°02'0 0.0
2018-May-16 18:25N 29°33' W 095°02'0 0.0
2018-May-16 17:43N 29°33' W 095°02'0 0.0
2018-May-16 17:22N 29°33' W 095°02'0 0.0
2018-May-16 16:19N 29°33' W 095°02'0 0.0
2018-May-16 13:43N 29°33' W 095°02'0 0.0
2018-May-16 13:25N 29°33' W 095°02'0 0.0
2018-May-16 12:46N 29°33' W 095°02'0 0.0
2018-May-16 11:07N 29°33' W 095°02'0 0.0
2018-May-16 10:37N 29°33' W 095°02'0 0.0
2018-May-16 10:19N 29°33' W 095°02'0 0.0
2018-May-16 09:49N 29°33' W 095°02'0 0.0
2018-May-16 09:28N 29°33' W 095°02'0 0.0
2018-May-16 08:58N 29°33' W 095°02'0 0.0
2018-May-16 08:22N 29°33' W 095°02'0 0.0
2018-May-16 07:40N 29°33' W 095°02'0 0.0
2018-May-16 07:28N 29°33' W 095°02'0 0.0
2018-May-16 06:49N 29°33' W 095°02'0 0.0
2018-May-16 06:28N 29°33' W 095°02'0 0.0
2018-May-16 05:58N 29°33' W 095°02'0 0.0
2018-May-16 03:46N 29°33' W 095°02'0 0.0
2018-May-16 03:25N 29°33' W 095°02'0 0.0
2018-May-16 01:10N 29°33' W 095°02'0 0.0
2018-May-16 00:58N 29°33' W 095°02'0 0.0
2018-May-16 00:19N 29°33' W 095°02'0 0.0
2018-May-15 23:58N 29°33' W 095°02'0 0.0
2018-May-15 23:19N 29°33' W 095°02'0 0.0
2018-May-15 22:58N 29°33' W 095°02'0 0.0
2018-May-15 22:22N 29°33' W 095°02'0 0.0
2018-May-15 21:58N 29°33' W 095°02'0 0.0
2018-May-15 21:28N 29°33' W 095°02'0 0.0
2018-May-15 19:46N 29°33' W 095°02'0 0.0
2018-May-15 19:28N 29°33' W 095°02'0 0.0
2018-May-15 18:49N 29°33' W 095°02'0 0.0
2018-May-15 18:25N 29°33' W 095°02'  

Dump ship's entire track history